sensor_id;sensor_type;location;lat;lon;timestamp;temperature;humidity
70366;DHT22;57787;48.216;12.396;2022-07-09T00:02:17;11.90;82.80
70366;DHT22;57787;48.216;12.396;2022-07-09T00:04:47;11.90;82.80
70366;DHT22;57787;48.216;12.396;2022-07-09T00:07:17;11.90;82.80
70366;DHT22;57787;48.216;12.396;2022-07-09T00:09:44;11.90;82.50
70366;DHT22;57787;48.216;12.396;2022-07-09T00:12:14;11.90;83.00
70366;DHT22;57787;48.216;12.396;2022-07-09T00:14:41;11.90;82.70
70366;DHT22;57787;48.216;12.396;2022-07-09T00:17:10;12.00;82.60
70366;DHT22;57787;48.216;12.396;2022-07-09T00:19:39;12.00;82.80
70366;DHT22;57787;48.216;12.396;2022-07-09T00:22:07;12.00;82.90
70366;DHT22;57787;48.216;12.396;2022-07-09T00:24:34;12.10;82.80
70366;DHT22;57787;48.216;12.396;2022-07-09T00:27:06;12.10;82.60
70366;DHT22;57787;48.216;12.396;2022-07-09T00:29:36;12.10;82.00
70366;DHT22;57787;48.216;12.396;2022-07-09T00:32:04;12.20;81.90
70366;DHT22;57787;48.216;12.396;2022-07-09T00:34:31;12.20;81.80
70366;DHT22;57787;48.216;12.396;2022-07-09T00:37:00;12.20;81.90
70366;DHT22;57787;48.216;12.396;2022-07-09T00:39:28;12.20;81.90
70366;DHT22;57787;48.216;12.396;2022-07-09T00:42:11;12.20;82.30
70366;DHT22;57787;48.216;12.396;2022-07-09T00:44:38;12.30;82.30
70366;DHT22;57787;48.216;12.396;2022-07-09T00:47:06;12.20;82.10
70366;DHT22;57787;48.216;12.396;2022-07-09T00:49:41;12.30;82.10
70366;DHT22;57787;48.216;12.396;2022-07-09T00:52:11;12.30;82.50
70366;DHT22;57787;48.216;12.396;2022-07-09T00:54:39;12.30;82.30
70366;DHT22;57787;48.216;12.396;2022-07-09T00:57:08;12.30;82.40
70366;DHT22;57787;48.216;12.396;2022-07-09T00:59:38;12.30;82.60
70366;DHT22;57787;48.216;12.396;2022-07-09T01:02:07;12.30;82.30
70366;DHT22;57787;48.216;12.396;2022-07-09T01:04:35;12.30;83.00
70366;DHT22;57787;48.216;12.396;2022-07-09T01:07:03;12.30;82.60
70366;DHT22;57787;48.216;12.396;2022-07-09T01:09:30;12.30;82.50
70366;DHT22;57787;48.216;12.396;2022-07-09T01:11:57;12.40;82.60
70366;DHT22;57787;48.216;12.396;2022-07-09T01:14:25;12.40;82.40
70366;DHT22;57787;48.216;12.396;2022-07-09T01:17:04;12.40;82.90
70366;DHT22;57787;48.216;12.396;2022-07-09T01:19:32;12.30;82.30
70366;DHT22;57787;48.216;12.396;2022-07-09T01:22:00;12.40;82.10
70366;DHT22;57787;48.216;12.396;2022-07-09T01:24:33;12.30;82.80
70366;DHT22;57787;48.216;12.396;2022-07-09T01:27:01;12.30;82.60
70366;DHT22;57787;48.216;12.396;2022-07-09T01:29:31;12.30;82.60
70366;DHT22;57787;48.216;12.396;2022-07-09T01:31:58;12.30;82.80
70366;DHT22;57787;48.216;12.396;2022-07-09T01:34:26;12.30;82.70
70366;DHT22;57787;48.216;12.396;2022-07-09T01:36:53;12.30;83.00
70366;DHT22;57787;48.216;12.396;2022-07-09T01:39:20;12.20;82.70
70366;DHT22;57787;48.216;12.396;2022-07-09T01:41:47;12.20;82.30
70366;DHT22;57787;48.216;12.396;2022-07-09T01:44:14;12.10;82.60
70366;DHT22;57787;48.216;12.396;2022-07-09T01:46:41;12.10;82.50
70366;DHT22;57787;48.216;12.396;2022-07-09T01:49:10;12.20;82.60
70366;DHT22;57787;48.216;12.396;2022-07-09T01:51:37;12.10;83.00
70366;DHT22;57787;48.216;12.396;2022-07-09T01:54:04;12.10;82.40
70366;DHT22;57787;48.216;12.396;2022-07-09T01:56:35;12.10;82.60
70366;DHT22;57787;48.216;12.396;2022-07-09T01:59:03;12.20;82.50
70366;DHT22;57787;48.216;12.396;2022-07-09T02:01:30;12.20;82.50
70366;DHT22;57787;48.216;12.396;2022-07-09T02:04:02;12.10;82.20
70366;DHT22;57787;48.216;12.396;2022-07-09T02:06:29;12.20;82.30
70366;DHT22;57787;48.216;12.396;2022-07-09T02:08:57;12.20;82.70
70366;DHT22;57787;48.216;12.396;2022-07-09T02:11:26;12.10;82.90
70366;DHT22;57787;48.216;12.396;2022-07-09T02:13:53;12.10;82.50
70366;DHT22;57787;48.216;12.396;2022-07-09T02:16:23;12.20;82.50
70366;DHT22;57787;48.216;12.396;2022-07-09T02:18:50;12.20;82.50
70366;DHT22;57787;48.216;12.396;2022-07-09T02:21:17;12.10;82.50
70366;DHT22;57787;48.216;12.396;2022-07-09T02:23:44;12.20;82.30
70366;DHT22;57787;48.216;12.396;2022-07-09T02:26:13;12.20;82.60
70366;DHT22;57787;48.216;12.396;2022-07-09T02:28:40;12.20;82.60
70366;DHT22;57787;48.216;12.396;2022-07-09T02:31:08;12.20;82.80
70366;DHT22;57787;48.216;12.396;2022-07-09T02:33:35;12.30;82.50
70366;DHT22;57787;48.216;12.396;2022-07-09T02:36:02;12.30;82.40
70366;DHT22;57787;48.216;12.396;2022-07-09T02:38:29;12.30;82.20
70366;DHT22;57787;48.216;12.396;2022-07-09T02:40:57;12.30;82.40
70366;DHT22;57787;48.216;12.396;2022-07-09T02:43:24;12.30;82.30
70366;DHT22;57787;48.216;12.396;2022-07-09T02:45:50;12.40;81.90
70366;DHT22;57787;48.216;12.396;2022-07-09T02:48:22;12.40;81.80
70366;DHT22;57787;48.216;12.396;2022-07-09T02:50:50;12.40;82.40
70366;DHT22;57787;48.216;12.396;2022-07-09T02:53:17;12.40;82.30
70366;DHT22;57787;48.216;12.396;2022-07-09T02:55:45;12.50;82.50
70366;DHT22;57787;48.216;12.396;2022-07-09T02:58:12;12.50;82.80
70366;DHT22;57787;48.216;12.396;2022-07-09T03:00:40;12.50;82.10
70366;DHT22;57787;48.216;12.396;2022-07-09T03:03:08;12.50;82.10
70366;DHT22;57787;48.216;12.396;2022-07-09T03:05:35;12.60;82.20
70366;DHT22;57787;48.216;12.396;2022-07-09T03:08:02;12.60;82.60
70366;DHT22;57787;48.216;12.396;2022-07-09T03:10:30;12.60;82.50
70366;DHT22;57787;48.216;12.396;2022-07-09T03:12:58;12.60;82.20
70366;DHT22;57787;48.216;12.396;2022-07-09T03:15:25;12.60;81.80
70366;DHT22;57787;48.216;12.396;2022-07-09T03:17:52;12.70;82.60
70366;DHT22;57787;48.216;12.396;2022-07-09T03:20:19;12.60;82.40
70366;DHT22;57787;48.216;12.396;2022-07-09T03:22:46;12.70;83.60
70366;DHT22;57787;48.216;12.396;2022-07-09T03:25:13;12.60;83.60
70366;DHT22;57787;48.216;12.396;2022-07-09T03:27:40;12.70;82.90
70366;DHT22;57787;48.216;12.396;2022-07-09T03:30:08;12.70;82.00
70366;DHT22;57787;48.216;12.396;2022-07-09T03:32:35;12.70;82.20
70366;DHT22;57787;48.216;12.396;2022-07-09T03:35:02;12.80;82.30
70366;DHT22;57787;48.216;12.396;2022-07-09T03:37:30;12.80;82.30
70366;DHT22;57787;48.216;12.396;2022-07-09T03:39:57;12.80;82.20
70366;DHT22;57787;48.216;12.396;2022-07-09T03:42:24;12.80;83.30
70366;DHT22;57787;48.216;12.396;2022-07-09T03:44:51;12.80;83.40
70366;DHT22;57787;48.216;12.396;2022-07-09T03:47:18;12.90;83.10
70366;DHT22;57787;48.216;12.396;2022-07-09T03:49:45;12.90;83.80
70366;DHT22;57787;48.216;12.396;2022-07-09T03:52:12;12.90;83.90
70366;DHT22;57787;48.216;12.396;2022-07-09T03:54:49;13.00;85.00
70366;DHT22;57787;48.216;12.396;2022-07-09T03:57:16;13.00;85.20
70366;DHT22;57787;48.216;12.396;2022-07-09T03:59:43;13.00;84.70
70366;DHT22;57787;48.216;12.396;2022-07-09T04:02:12;13.00;84.90
70366;DHT22;57787;48.216;12.396;2022-07-09T04:04:40;13.10;84.70
70366;DHT22;57787;48.216;12.396;2022-07-09T04:07:07;13.10;85.20
70366;DHT22;57787;48.216;12.396;2022-07-09T04:09:35;13.10;85.30
70366;DHT22;57787;48.216;12.396;2022-07-09T04:12:02;13.10;85.10
70366;DHT22;57787;48.216;12.396;2022-07-09T04:14:29;13.20;84.90
70366;DHT22;57787;48.216;12.396;2022-07-09T04:16:56;13.20;85.60
70366;DHT22;57787;48.216;12.396;2022-07-09T04:19:23;13.20;84.50
70366;DHT22;57787;48.216;12.396;2022-07-09T04:21:50;13.30;84.70
70366;DHT22;57787;48.216;12.396;2022-07-09T04:24:17;13.30;85.00
70366;DHT22;57787;48.216;12.396;2022-07-09T04:26:44;13.40;84.40
70366;DHT22;57787;48.216;12.396;2022-07-09T04:29:11;13.40;84.10
70366;DHT22;57787;48.216;12.396;2022-07-09T04:31:38;13.50;83.40
70366;DHT22;57787;48.216;12.396;2022-07-09T04:34:05;13.60;83.40
70366;DHT22;57787;48.216;12.396;2022-07-09T04:36:32;13.70;83.20
70366;DHT22;57787;48.216;12.396;2022-07-09T04:38:59;13.80;83.40
70366;DHT22;57787;48.216;12.396;2022-07-09T04:41:27;13.80;83.00
70366;DHT22;57787;48.216;12.396;2022-07-09T04:43:55;13.90;82.50
70366;DHT22;57787;48.216;12.396;2022-07-09T04:46:22;14.00;82.20
70366;DHT22;57787;48.216;12.396;2022-07-09T04:48:49;14.10;82.20
70366;DHT22;57787;48.216;12.396;2022-07-09T04:51:16;14.20;82.20
70366;DHT22;57787;48.216;12.396;2022-07-09T04:53:43;14.30;81.80
70366;DHT22;57787;48.216;12.396;2022-07-09T04:56:10;14.40;81.30
70366;DHT22;57787;48.216;12.396;2022-07-09T04:58:37;14.50;81.50
70366;DHT22;57787;48.216;12.396;2022-07-09T05:01:04;14.60;81.00
70366;DHT22;57787;48.216;12.396;2022-07-09T05:03:31;14.70;81.30
70366;DHT22;57787;48.216;12.396;2022-07-09T05:05:58;14.80;80.70
70366;DHT22;57787;48.216;12.396;2022-07-09T05:08:25;14.90;79.90
70366;DHT22;57787;48.216;12.396;2022-07-09T05:10:53;14.90;79.30
70366;DHT22;57787;48.216;12.396;2022-07-09T05:13:20;15.00;78.40
70366;DHT22;57787;48.216;12.396;2022-07-09T05:15:47;15.00;77.70
70366;DHT22;57787;48.216;12.396;2022-07-09T05:18:13;15.10;77.40
70366;DHT22;57787;48.216;12.396;2022-07-09T05:20:40;15.20;77.10
70366;DHT22;57787;48.216;12.396;2022-07-09T05:23:10;15.30;77.00
70366;DHT22;57787;48.216;12.396;2022-07-09T05:25:37;15.30;77.00
70366;DHT22;57787;48.216;12.396;2022-07-09T05:28:04;15.30;76.60
70366;DHT22;57787;48.216;12.396;2022-07-09T05:30:31;15.30;76.30
70366;DHT22;57787;48.216;12.396;2022-07-09T05:33:04;15.30;76.10
70366;DHT22;57787;48.216;12.396;2022-07-09T05:35:34;15.40;76.10
70366;DHT22;57787;48.216;12.396;2022-07-09T05:38:01;15.40;76.90
70366;DHT22;57787;48.216;12.396;2022-07-09T05:40:28;15.40;77.00
70366;DHT22;57787;48.216;12.396;2022-07-09T05:42:55;15.50;76.50
70366;DHT22;57787;48.216;12.396;2022-07-09T05:45:23;15.60;74.90
70366;DHT22;57787;48.216;12.396;2022-07-09T05:47:50;15.60;76.70
70366;DHT22;57787;48.216;12.396;2022-07-09T05:50:17;15.80;76.90
70366;DHT22;57787;48.216;12.396;2022-07-09T05:52:43;15.80;77.10
70366;DHT22;57787;48.216;12.396;2022-07-09T05:55:11;15.80;77.40
70366;DHT22;57787;48.216;12.396;2022-07-09T05:57:38;16.00;77.10
70366;DHT22;57787;48.216;12.396;2022-07-09T06:00:08;16.00;76.70
70366;DHT22;57787;48.216;12.396;2022-07-09T06:02:35;16.00;76.50
70366;DHT22;57787;48.216;12.396;2022-07-09T06:05:02;16.10;76.20
70366;DHT22;57787;48.216;12.396;2022-07-09T06:07:30;16.20;74.90
70366;DHT22;57787;48.216;12.396;2022-07-09T06:09:56;16.20;75.10
70366;DHT22;57787;48.216;12.396;2022-07-09T06:12:23;16.30;74.60
70366;DHT22;57787;48.216;12.396;2022-07-09T06:14:50;16.30;73.60
70366;DHT22;57787;48.216;12.396;2022-07-09T06:17:17;16.30;74.40
70366;DHT22;57787;48.216;12.396;2022-07-09T06:19:45;16.30;73.80
70366;DHT22;57787;48.216;12.396;2022-07-09T06:22:11;16.40;74.20
70366;DHT22;57787;48.216;12.396;2022-07-09T06:24:38;16.50;73.40
70366;DHT22;57787;48.216;12.396;2022-07-09T06:27:05;16.60;74.00
70366;DHT22;57787;48.216;12.396;2022-07-09T06:29:32;16.70;73.20
70366;DHT22;57787;48.216;12.396;2022-07-09T06:31:59;16.90;73.20
70366;DHT22;57787;48.216;12.396;2022-07-09T06:34:27;17.00;72.50
70366;DHT22;57787;48.216;12.396;2022-07-09T06:36:54;17.10;72.40
70366;DHT22;57787;48.216;12.396;2022-07-09T06:39:22;17.20;72.50
70366;DHT22;57787;48.216;12.396;2022-07-09T06:42:09;17.30;71.20
70366;DHT22;57787;48.216;12.396;2022-07-09T06:44:37;17.30;71.40
70366;DHT22;57787;48.216;12.396;2022-07-09T06:47:05;17.30;72.10
70366;DHT22;57787;48.216;12.396;2022-07-09T06:49:35;17.40;71.80
70366;DHT22;57787;48.216;12.396;2022-07-09T06:52:05;17.40;72.40
70366;DHT22;57787;48.216;12.396;2022-07-09T06:54:32;17.50;73.30
70366;DHT22;57787;48.216;12.396;2022-07-09T06:56:59;17.50;73.40
70366;DHT22;57787;48.216;12.396;2022-07-09T06:59:32;17.60;72.40
70366;DHT22;57787;48.216;12.396;2022-07-09T07:01:59;17.60;71.70
70366;DHT22;57787;48.216;12.396;2022-07-09T07:04:26;17.70;71.70
70366;DHT22;57787;48.216;12.396;2022-07-09T07:06:53;17.70;71.70
70366;DHT22;57787;48.216;12.396;2022-07-09T07:09:20;17.80;71.20
70366;DHT22;57787;48.216;12.396;2022-07-09T07:11:51;17.80;71.50
70366;DHT22;57787;48.216;12.396;2022-07-09T07:14:18;17.80;70.40
70366;DHT22;57787;48.216;12.396;2022-07-09T07:16:45;17.80;70.40
70366;DHT22;57787;48.216;12.396;2022-07-09T07:19:12;17.80;69.50
70366;DHT22;57787;48.216;12.396;2022-07-09T07:21:40;17.80;70.30
70366;DHT22;57787;48.216;12.396;2022-07-09T07:24:07;17.70;70.10
70366;DHT22;57787;48.216;12.396;2022-07-09T07:26:35;17.70;70.50
70366;DHT22;57787;48.216;12.396;2022-07-09T07:29:04;17.60;70.50
70366;DHT22;57787;48.216;12.396;2022-07-09T07:31:38;17.50;71.20
70366;DHT22;57787;48.216;12.396;2022-07-09T07:34:05;17.40;70.10
70366;DHT22;57787;48.216;12.396;2022-07-09T07:36:37;17.40;70.70
70366;DHT22;57787;48.216;12.396;2022-07-09T07:39:05;17.40;70.90
70366;DHT22;57787;48.216;12.396;2022-07-09T07:41:32;17.30;70.80
70366;DHT22;57787;48.216;12.396;2022-07-09T07:43:59;17.40;70.20
70366;DHT22;57787;48.216;12.396;2022-07-09T07:46:29;17.40;70.00
70366;DHT22;57787;48.216;12.396;2022-07-09T07:48:56;17.60;70.10
70366;DHT22;57787;48.216;12.396;2022-07-09T07:51:25;17.60;70.80
70366;DHT22;57787;48.216;12.396;2022-07-09T07:53:53;17.80;71.00
70366;DHT22;57787;48.216;12.396;2022-07-09T07:56:19;17.90;71.30
70366;DHT22;57787;48.216;12.396;2022-07-09T07:58:46;18.10;70.80
70366;DHT22;57787;48.216;12.396;2022-07-09T08:01:13;18.30;70.30
70366;DHT22;57787;48.216;12.396;2022-07-09T08:03:40;18.50;69.10
70366;DHT22;57787;48.216;12.396;2022-07-09T08:06:07;18.60;69.30
70366;DHT22;57787;48.216;12.396;2022-07-09T08:08:34;18.70;68.30
70366;DHT22;57787;48.216;12.396;2022-07-09T08:11:02;18.80;66.60
70366;DHT22;57787;48.216;12.396;2022-07-09T08:13:29;19.00;67.70
70366;DHT22;57787;48.216;12.396;2022-07-09T08:15:56;19.20;67.90
70366;DHT22;57787;48.216;12.396;2022-07-09T08:18:23;19.40;66.90
70366;DHT22;57787;48.216;12.396;2022-07-09T08:20:50;19.60;66.60
70366;DHT22;57787;48.216;12.396;2022-07-09T08:23:18;19.80;64.40
70366;DHT22;57787;48.216;12.396;2022-07-09T08:25:45;20.00;65.10
70366;DHT22;57787;48.216;12.396;2022-07-09T08:28:13;20.10;64.20
70366;DHT22;57787;48.216;12.396;2022-07-09T08:30:40;20.30;63.30
70366;DHT22;57787;48.216;12.396;2022-07-09T08:33:07;20.50;62.50
70366;DHT22;57787;48.216;12.396;2022-07-09T08:35:39;20.80;63.20
70366;DHT22;57787;48.216;12.396;2022-07-09T08:38:06;21.00;61.10
70366;DHT22;57787;48.216;12.396;2022-07-09T08:40:33;21.30;61.40
70366;DHT22;57787;48.216;12.396;2022-07-09T08:43:03;21.60;60.70
70366;DHT22;57787;48.216;12.396;2022-07-09T08:45:30;21.90;59.80
70366;DHT22;57787;48.216;12.396;2022-07-09T08:48:00;22.10;59.20
70366;DHT22;57787;48.216;12.396;2022-07-09T08:50:28;22.30;57.40
70366;DHT22;57787;48.216;12.396;2022-07-09T08:52:55;22.50;57.10
70366;DHT22;57787;48.216;12.396;2022-07-09T08:55:22;22.70;59.30
70366;DHT22;57787;48.216;12.396;2022-07-09T08:57:50;22.80;56.90
70366;DHT22;57787;48.216;12.396;2022-07-09T09:00:17;23.00;57.30
70366;DHT22;57787;48.216;12.396;2022-07-09T09:02:44;23.20;56.40
70366;DHT22;57787;48.216;12.396;2022-07-09T09:05:15;23.30;57.00
70366;DHT22;57787;48.216;12.396;2022-07-09T09:07:43;23.40;56.00
70366;DHT22;57787;48.216;12.396;2022-07-09T09:10:27;23.40;55.20
70366;DHT22;57787;48.216;12.396;2022-07-09T09:12:59;23.50;55.50
70366;DHT22;57787;48.216;12.396;2022-07-09T09:15:29;23.50;55.10
70366;DHT22;57787;48.216;12.396;2022-07-09T09:17:56;23.60;56.10
70366;DHT22;57787;48.216;12.396;2022-07-09T09:20:23;23.80;55.40
70366;DHT22;57787;48.216;12.396;2022-07-09T09:22:53;23.80;56.30
70366;DHT22;57787;48.216;12.396;2022-07-09T09:25:26;23.90;52.20
70366;DHT22;57787;48.216;12.396;2022-07-09T09:27:55;23.90;52.60
70366;DHT22;57787;48.216;12.396;2022-07-09T09:30:23;24.00;52.30
70366;DHT22;57787;48.216;12.396;2022-07-09T09:33:09;24.00;52.40
70366;DHT22;57787;48.216;12.396;2022-07-09T09:35:44;24.10;51.60
70366;DHT22;57787;48.216;12.396;2022-07-09T09:38:11;24.30;51.30
70366;DHT22;57787;48.216;12.396;2022-07-09T09:40:44;24.50;51.50
70366;DHT22;57787;48.216;12.396;2022-07-09T09:43:11;24.60;52.40
70366;DHT22;57787;48.216;12.396;2022-07-09T09:45:43;24.60;48.50
70366;DHT22;57787;48.216;12.396;2022-07-09T09:48:11;24.50;49.20
70366;DHT22;57787;48.216;12.396;2022-07-09T09:50:38;24.50;50.90
70366;DHT22;57787;48.216;12.396;2022-07-09T09:53:07;24.30;45.50
70366;DHT22;57787;48.216;12.396;2022-07-09T09:55:36;24.30;48.50
70366;DHT22;57787;48.216;12.396;2022-07-09T09:58:06;24.40;48.10
70366;DHT22;57787;48.216;12.396;2022-07-09T10:00:33;24.50;46.00
70366;DHT22;57787;48.216;12.396;2022-07-09T10:03:01;24.80;48.50
70366;DHT22;57787;48.216;12.396;2022-07-09T10:05:28;25.00;45.90
70366;DHT22;57787;48.216;12.396;2022-07-09T10:15:18;25.50;42.50
70366;DHT22;57787;48.216;12.396;2022-07-09T10:17:47;25.60;43.90
70366;DHT22;57787;48.216;12.396;2022-07-09T10:20:14;25.60;43.10
70366;DHT22;57787;48.216;12.396;2022-07-09T10:22:45;25.70;47.10
70366;DHT22;57787;48.216;12.396;2022-07-09T10:25:44;25.70;43.90
70366;DHT22;57787;48.216;12.396;2022-07-09T10:28:16;25.60;42.60
70366;DHT22;57787;48.216;12.396;2022-07-09T10:30:45;25.50;40.70
70366;DHT22;57787;48.216;12.396;2022-07-09T10:33:31;25.40;43.80
70366;DHT22;57787;48.216;12.396;2022-07-09T10:36:10;25.20;41.20
70366;DHT22;57787;48.216;12.396;2022-07-09T10:38:40;24.90;43.90
70366;DHT22;57787;48.216;12.396;2022-07-09T10:41:22;24.90;45.50
70366;DHT22;57787;48.216;12.396;2022-07-09T10:43:53;25.20;43.80
70366;DHT22;57787;48.216;12.396;2022-07-09T10:46:20;25.40;43.10
70366;DHT22;57787;48.216;12.396;2022-07-09T10:48:47;25.40;42.90
70366;DHT22;57787;48.216;12.396;2022-07-09T10:51:22;25.50;44.00
70366;DHT22;57787;48.216;12.396;2022-07-09T10:53:51;25.50;44.70
70366;DHT22;57787;48.216;12.396;2022-07-09T10:56:20;25.60;45.30
70366;DHT22;57787;48.216;12.396;2022-07-09T10:58:48;25.60;45.50
70366;DHT22;57787;48.216;12.396;2022-07-09T11:01:20;25.60;42.30
70366;DHT22;57787;48.216;12.396;2022-07-09T11:03:49;25.70;46.60
70366;DHT22;57787;48.216;12.396;2022-07-09T11:06:19;25.80;45.40
70366;DHT22;57787;48.216;12.396;2022-07-09T11:08:46;25.60;42.50
70366;DHT22;57787;48.216;12.396;2022-07-09T11:11:23;25.60;41.60
70366;DHT22;57787;48.216;12.396;2022-07-09T11:13:57;25.60;42.00
70366;DHT22;57787;48.216;12.396;2022-07-09T11:16:25;25.50;40.50
70366;DHT22;57787;48.216;12.396;2022-07-09T11:18:54;25.30;41.60
70366;DHT22;57787;48.216;12.396;2022-07-09T11:21:26;25.40;47.80
70366;DHT22;57787;48.216;12.396;2022-07-09T11:23:54;25.40;45.70
70366;DHT22;57787;48.216;12.396;2022-07-09T11:26:21;25.50;45.40
70366;DHT22;57787;48.216;12.396;2022-07-09T11:28:48;25.70;42.50
70366;DHT22;57787;48.216;12.396;2022-07-09T11:31:16;26.20;43.80
70366;DHT22;57787;48.216;12.396;2022-07-09T11:33:44;26.30;44.60
70366;DHT22;57787;48.216;12.396;2022-07-09T11:36:41;26.40;43.00
70366;DHT22;57787;48.216;12.396;2022-07-09T11:39:09;26.40;44.30
70366;DHT22;57787;48.216;12.396;2022-07-09T11:41:43;26.10;41.00
70366;DHT22;57787;48.216;12.396;2022-07-09T11:44:11;26.10;42.30
70366;DHT22;57787;48.216;12.396;2022-07-09T11:46:45;26.00;42.20
70366;DHT22;57787;48.216;12.396;2022-07-09T11:49:16;26.00;43.40
70366;DHT22;57787;48.216;12.396;2022-07-09T11:51:43;26.00;44.60
70366;DHT22;57787;48.216;12.396;2022-07-09T11:54:10;26.10;44.30
70366;DHT22;57787;48.216;12.396;2022-07-09T11:56:44;25.80;40.10
70366;DHT22;57787;48.216;12.396;2022-07-09T11:59:13;25.70;39.70
70366;DHT22;57787;48.216;12.396;2022-07-09T12:01:40;25.40;44.00
70366;DHT22;57787;48.216;12.396;2022-07-09T12:04:18;25.30;43.10
70366;DHT22;57787;48.216;12.396;2022-07-09T12:06:48;25.10;43.70
70366;DHT22;57787;48.216;12.396;2022-07-09T12:09:15;24.90;45.90
70366;DHT22;57787;48.216;12.396;2022-07-09T12:11:43;24.70;47.70
70366;DHT22;57787;48.216;12.396;2022-07-09T12:14:10;24.50;47.00
70366;DHT22;57787;48.216;12.396;2022-07-09T12:16:39;24.30;46.40
70366;DHT22;57787;48.216;12.396;2022-07-09T12:19:06;24.20;46.10
70366;DHT22;57787;48.216;12.396;2022-07-09T12:21:33;24.00;47.20
70366;DHT22;57787;48.216;12.396;2022-07-09T12:24:00;23.90;44.60
70366;DHT22;57787;48.216;12.396;2022-07-09T12:26:28;23.90;48.10
70366;DHT22;57787;48.216;12.396;2022-07-09T12:28:57;23.80;51.00
70366;DHT22;57787;48.216;12.396;2022-07-09T12:31:26;23.80;46.70
70366;DHT22;57787;48.216;12.396;2022-07-09T12:33:53;23.90;48.10
70366;DHT22;57787;48.216;12.396;2022-07-09T12:36:21;24.40;50.60
70366;DHT22;57787;48.216;12.396;2022-07-09T12:39:08;24.90;48.00
70366;DHT22;57787;48.216;12.396;2022-07-09T12:41:35;25.00;45.10
70366;DHT22;57787;48.216;12.396;2022-07-09T12:44:02;25.00;44.30
70366;DHT22;57787;48.216;12.396;2022-07-09T12:46:29;25.20;43.50
70366;DHT22;57787;48.216;12.396;2022-07-09T12:48:56;25.30;44.70
70366;DHT22;57787;48.216;12.396;2022-07-09T12:51:23;25.40;45.40
70366;DHT22;57787;48.216;12.396;2022-07-09T12:53:50;25.60;44.60
70366;DHT22;57787;48.216;12.396;2022-07-09T12:56:17;25.80;43.10
70366;DHT22;57787;48.216;12.396;2022-07-09T12:58:45;25.90;43.20
70366;DHT22;57787;48.216;12.396;2022-07-09T13:01:12;26.10;44.70
70366;DHT22;57787;48.216;12.396;2022-07-09T13:03:38;26.20;42.40
70366;DHT22;57787;48.216;12.396;2022-07-09T13:06:25;26.30;42.20
70366;DHT22;57787;48.216;12.396;2022-07-09T13:09:03;26.30;45.30
70366;DHT22;57787;48.216;12.396;2022-07-09T13:11:31;26.40;49.40
70366;DHT22;57787;48.216;12.396;2022-07-09T13:13:58;26.50;44.60
70366;DHT22;57787;48.216;12.396;2022-07-09T13:16:25;26.60;44.40
70366;DHT22;57787;48.216;12.396;2022-07-09T13:18:52;26.60;47.00
70366;DHT22;57787;48.216;12.396;2022-07-09T13:21:22;26.60;42.90
70366;DHT22;57787;48.216;12.396;2022-07-09T13:23:49;26.60;39.80
70366;DHT22;57787;48.216;12.396;2022-07-09T13:26:18;26.60;39.00
70366;DHT22;57787;48.216;12.396;2022-07-09T13:28:45;26.50;38.60
70366;DHT22;57787;48.216;12.396;2022-07-09T13:31:13;26.30;37.00
70366;DHT22;57787;48.216;12.396;2022-07-09T13:33:43;26.30;38.70
70366;DHT22;57787;48.216;12.396;2022-07-09T13:36:10;26.20;38.10
70366;DHT22;57787;48.216;12.396;2022-07-09T13:38:37;26.20;39.70
70366;DHT22;57787;48.216;12.396;2022-07-09T13:41:04;26.20;40.10
70366;DHT22;57787;48.216;12.396;2022-07-09T13:43:32;26.00;38.50
70366;DHT22;57787;48.216;12.396;2022-07-09T13:46:02;26.00;38.60
70366;DHT22;57787;48.216;12.396;2022-07-09T13:48:32;26.00;39.00
70366;DHT22;57787;48.216;12.396;2022-07-09T13:50:59;26.20;43.00
70366;DHT22;57787;48.216;12.396;2022-07-09T13:53:29;26.40;38.90
70366;DHT22;57787;48.216;12.396;2022-07-09T13:55:59;26.50;39.70
70366;DHT22;57787;48.216;12.396;2022-07-09T13:58:26;26.60;40.70
70366;DHT22;57787;48.216;12.396;2022-07-09T14:00:53;26.50;37.90
70366;DHT22;57787;48.216;12.396;2022-07-09T14:03:20;26.30;40.10
70366;DHT22;57787;48.216;12.396;2022-07-09T14:05:47;26.30;38.60
70366;DHT22;57787;48.216;12.396;2022-07-09T14:08:14;26.10;40.10
70366;DHT22;57787;48.216;12.396;2022-07-09T14:10:54;25.90;39.80
70366;DHT22;57787;48.216;12.396;2022-07-09T14:13:27;25.60;39.20
70366;DHT22;57787;48.216;12.396;2022-07-09T14:15:54;25.50;47.60
70366;DHT22;57787;48.216;12.396;2022-07-09T14:18:23;25.20;41.90
70366;DHT22;57787;48.216;12.396;2022-07-09T14:20:51;25.10;43.80
70366;DHT22;57787;48.216;12.396;2022-07-09T14:23:19;24.90;41.00
70366;DHT22;57787;48.216;12.396;2022-07-09T14:25:47;24.80;42.70
70366;DHT22;57787;48.216;12.396;2022-07-09T14:28:15;24.70;42.80
70366;DHT22;57787;48.216;12.396;2022-07-09T14:30:42;24.70;47.20
70366;DHT22;57787;48.216;12.396;2022-07-09T14:33:10;24.40;42.40
70366;DHT22;57787;48.216;12.396;2022-07-09T14:35:37;24.40;44.80
70366;DHT22;57787;48.216;12.396;2022-07-09T14:38:06;24.40;47.50
70366;DHT22;57787;48.216;12.396;2022-07-09T14:40:33;24.50;46.70
70366;DHT22;57787;48.216;12.396;2022-07-09T14:43:03;24.50;49.60
70366;DHT22;57787;48.216;12.396;2022-07-09T14:45:30;24.50;45.90
70366;DHT22;57787;48.216;12.396;2022-07-09T14:47:57;24.50;45.20
70366;DHT22;57787;48.216;12.396;2022-07-09T14:50:24;24.50;43.20
70366;DHT22;57787;48.216;12.396;2022-07-09T14:52:51;24.40;45.90
70366;DHT22;57787;48.216;12.396;2022-07-09T14:55:18;24.30;47.20
70366;DHT22;57787;48.216;12.396;2022-07-09T14:57:45;24.20;46.90
70366;DHT22;57787;48.216;12.396;2022-07-09T15:00:14;24.10;46.50
70366;DHT22;57787;48.216;12.396;2022-07-09T15:02:43;24.10;52.10
70366;DHT22;57787;48.216;12.396;2022-07-09T15:05:13;24.00;45.70
70366;DHT22;57787;48.216;12.396;2022-07-09T15:07:41;24.10;45.80
70366;DHT22;57787;48.216;12.396;2022-07-09T15:10:08;24.30;45.50
70366;DHT22;57787;48.216;12.396;2022-07-09T15:12:35;24.40;46.80
70366;DHT22;57787;48.216;12.396;2022-07-09T15:15:02;24.50;45.50
70366;DHT22;57787;48.216;12.396;2022-07-09T15:17:30;24.50;45.10
70366;DHT22;57787;48.216;12.396;2022-07-09T15:19:57;24.70;46.50
70366;DHT22;57787;48.216;12.396;2022-07-09T15:22:24;24.70;44.80
70366;DHT22;57787;48.216;12.396;2022-07-09T15:24:52;24.70;47.50
70366;DHT22;57787;48.216;12.396;2022-07-09T15:27:20;24.70;44.50
70366;DHT22;57787;48.216;12.396;2022-07-09T15:29:47;24.80;47.00
70366;DHT22;57787;48.216;12.396;2022-07-09T15:32:14;24.80;44.80